^^
Datos históricos de la estación: Murcia-Puente Tocinos
Diario Informe para Enero 16, 2019 Unidades:  Ambas    Ingés   Métrico
Diario Semanal Mensual Anual
  Máxima: Mínima: Promedio:
Temperatura: 77.2 °F /  25.1 °C 64.8 °F /  18.2 °C 71.4 °F /  21.9 °C
Punto de rocio: 61.3 °F /  16.3 °C 47.7 °F /  8.7 °C 55.4 °F /  13 °C
Humedad: 73% 42.4% 57%
Velocidad viento: 10mph /  16.1km/h - 4.5mph /  7.3km/h
Racha viento: 20mph /  32.2km/h - -
Viento- - Este
Presión: 30.1 in /  1018.4 hPa 30 in /  1015.8 hPa -
Precipitación: 0 in /  0.0 mm    
 
 
Tabla de datos para Enero 16, 2019
Hora Temperatura Punto de rocio Presión Viento Velocidad viento Racha viento Humedad Intensidad lluvia(por hora) Nubes
00:04 71.8 °F /  22.1 °C 47.7 °F /  8.7 °C 30in /  1016.8hPa NNE 3.6mph /  5.8km/h 6mph /  9.7km/h 42.4% 0in /  0.0mm
00:09 71.4 °F /  21.9 °C 47.8 °F /  8.8 °C 30in /  1016.8hPa NNE 3.7mph /  6km/h 6.9mph /  11.1km/h 43.1% 0in /  0.0mm
00:14 71.1 °F /  21.7 °C 48 °F /  8.9 °C 30in /  1016.8hPa NNE 4mph /  6.5km/h 7mph /  11.3km/h 44% 0in /  0.0mm
00:19 71.1 °F /  21.7 °C 48 °F /  8.9 °C 30in /  1016.8hPa North 3.7mph /  5.9km/h 5.2mph /  8.4km/h 44% 0in /  0.0mm
00:24 70.9 °F /  21.6 °C 48.4 °F /  9.1 °C 30in /  1016.8hPa NNE 2.9mph /  4.7km/h 7.6mph /  12.2km/h 45% 0in /  0.0mm
00:29 70.5 °F /  21.4 °C 48.4 °F /  9.1 °C 30in /  1016.8hPa NNE 3.2mph /  5.2km/h 8.1mph /  13km/h 45.6% 0in /  0.0mm
00:34 70.2 °F /  21.2 °C 48.6 °F /  9.2 °C 30in /  1016.9hPa NE 4mph /  6.5km/h 8mph /  12.9km/h 46.5% 0in /  0.0mm
00:39 69.8 °F /  21 °C 48.6 °F /  9.2 °C 30in /  1016.9hPa NE 4.1mph /  6.6km/h 8.1mph /  13km/h 47% 0in /  0.0mm
00:44 69.4 °F /  20.8 °C 48.7 °F /  9.3 °C 30in /  1016.9hPa NNE 4.3mph /  6.9km/h 8mph /  12.9km/h 47.7% 0in /  0.0mm
00:49 69.3 °F /  20.7 °C 48.7 °F /  9.3 °C 30in /  1016.9hPa NE 4.2mph /  6.8km/h 7mph /  11.3km/h 48% 0in /  0.0mm
00:54 69.1 °F /  20.6 °C 48.7 °F /  9.3 °C 30in /  1016.9hPa NNE 4mph /  6.5km/h 6.9mph /  11.1km/h 48.3% 0in /  0.0mm
00:59 69.1 °F /  20.6 °C 49.1 °F /  9.5 °C 30in /  1016.9hPa North 3.9mph /  6.2km/h 7mph /  11.3km/h 49% 0in /  0.0mm
01:04 68.9 °F /  20.5 °C 48.9 °F /  9.4 °C 30in /  1017.1hPa NNE 3.6mph /  5.8km/h 5.8mph /  9.3km/h 49% 0in /  0.0mm
01:09 68.9 °F /  20.5 °C 49.5 °F /  9.7 °C 30in /  1017.1hPa NNE 3.4mph /  5.4km/h 6.2mph /  10km/h 50% 0in /  0.0mm
01:14 68.7 °F /  20.4 °C 49.6 °F /  9.8 °C 30in /  1017.1hPa NNE 2.9mph /  4.7km/h 6.4mph /  10.3km/h 50.5% 0in /  0.0mm
01:19 68.5 °F /  20.3 °C 49.8 °F /  9.9 °C 30in /  1017.1hPa NNE 2.9mph /  4.7km/h 7mph /  11.3km/h 51.1% 0in /  0.0mm
01:24 68.5 °F /  20.3 °C 50.2 °F /  10.1 °C 30in /  1017.0hPa NE 3.1mph /  5km/h 5mph /  8km/h 52% 0in /  0.0mm
01:29 68.5 °F /  20.3 °C 50.7 °F /  10.4 °C 30in /  1017.0hPa NNE 3mph /  4.9km/h 5.8mph /  9.3km/h 53% 0in /  0.0mm
01:34 68.4 °F /  20.2 °C 50.5 °F /  10.3 °C 30in /  1017.0hPa NNE 2.9mph /  4.7km/h 6mph /  9.7km/h 53% 0in /  0.0mm
01:39 68.2 °F /  20.1 °C 50.7 °F /  10.4 °C 30in /  1017.0hPa NNE 2.9mph /  4.7km/h 5mph /  8km/h 53.7% 0in /  0.0mm
01:44 68.2 °F /  20.1 °C 50.9 °F /  10.5 °C 30in /  1017.0hPa NNE 2.9mph /  4.7km/h 5mph /  8km/h 54% 0in /  0.0mm
01:49 68.2 °F /  20.1 °C 50.9 °F /  10.5 °C 30in /  1017.1hPa NE 2.9mph /  4.7km/h 5mph /  8km/h 54% 0in /  0.0mm
01:54 68 °F /  20 °C 50.7 °F /  10.4 °C 30in /  1017.1hPa NE 2.9mph /  4.6km/h 5mph /  8km/h 54% 0in /  0.0mm
01:59 67.8 °F /  19.9 °C 50.2 °F /  10.1 °C 30in /  1017.1hPa NE 2.9mph /  4.7km/h 5mph /  8km/h 53.2% 0in /  0.0mm
02:04 67.8 °F /  19.9 °C 49.5 °F /  9.7 °C 30in /  1017.1hPa NE 2.9mph /  4.6km/h 5mph /  8km/h 52% 0in /  0.0mm
02:09 68 °F /  20 °C 48.9 °F /  9.4 °C 30in /  1017.0hPa NE 3mph /  4.8km/h 5mph /  8km/h 50.7% 0in /  0.0mm
02:14 68.2 °F /  20.1 °C 48.9 °F /  9.4 °C 30in /  1017.0hPa NE 3.1mph /  5km/h 5.2mph /  8.4km/h 50.2% 0in /  0.0mm
02:19 68.2 °F /  20.1 °C 49.5 °F /  9.7 °C 30in /  1017.0hPa NE 3.1mph /  5km/h 5mph /  8km/h 51% 0in /  0.0mm
02:24 67.8 °F /  19.9 °C 49.1 °F /  9.5 °C 30in /  1016.9hPa NNE 3.1mph /  5km/h 5.2mph /  8.4km/h 51% 0in /  0.0mm
02:29 67.8 °F /  19.9 °C 48.9 °F /  9.4 °C 30in /  1016.9hPa NE 3mph /  4.9km/h 5.4mph /  8.7km/h 51% 0in /  0.0mm
02:34 67.6 °F /  19.8 °C 48.7 °F /  9.3 °C 30in /  1016.9hPa NE 2.9mph /  4.6km/h 6.2mph /  10km/h 51% 0in /  0.0mm
02:39 67.3 °F /  19.6 °C 48.6 °F /  9.2 °C 30in /  1016.7hPa NE 3mph /  4.9km/h 6mph /  9.7km/h 50.8% 0in /  0.0mm
02:44 67.1 °F /  19.5 °C 48.6 °F /  9.2 °C 30in /  1016.7hPa NE 3.6mph /  5.8km/h 5mph /  8km/h 51.1% 0in /  0.0mm
02:49 67.1 °F /  19.5 °C 48.4 °F /  9.1 °C 30in /  1016.7hPa NNE 3.6mph /  5.8km/h 5mph /  8km/h 51.1% 0in /  0.0mm
02:54 67.1 °F /  19.5 °C 49.1 °F /  9.5 °C 30in /  1016.6hPa NE 2.9mph /  4.7km/h 4mph /  6.4km/h 52.3% 0in /  0.0mm
02:59 67.1 °F /  19.5 °C 49.6 °F /  9.8 °C 30in /  1016.6hPa NNE 2.2mph /  3.6km/h 5mph /  8km/h 53.6% 0in /  0.0mm
03:04 67.1 °F /  19.5 °C 50 °F /  10 °C 30in /  1016.6hPa NNE 2mph /  3.2km/h 5mph /  8km/h 54.4% 0in /  0.0mm
03:09 66.9 °F /  19.4 °C 50.7 °F /  10.4 °C 30in /  1016.5hPa NNE 1.9mph /  3.1km/h 4.6mph /  7.4km/h 55.8% 0in /  0.0mm
03:14 66.9 °F /  19.4 °C 50.9 °F /  10.5 °C 30in /  1016.5hPa NNE 1.8mph /  2.9km/h 5mph /  8km/h 56.5% 0in /  0.0mm
03:19 66.9 °F /  19.4 °C 51.3 °F /  10.7 °C 30in /  1016.5hPa NNE 1.2mph /  2km/h 2mph /  3.2km/h 57% 0in /  0.0mm
03:24 67.1 °F /  19.5 °C 51.6 °F /  10.9 °C 30in /  1016.5hPa Calm     57.8% 0in /  0.0mm
03:29 67.1 °F /  19.5 °C 52.3 °F /  11.3 °C 30in /  1016.5hPa Calm     58.9% 0in /  0.0mm
03:34 67.1 °F /  19.5 °C 52 °F /  11.1 °C 30in /  1016.5hPa Calm     58.2% 0in /  0.0mm
03:39 67.1 °F /  19.5 °C 51.4 °F /  10.8 °C 30in /  1016.5hPa Calm     57% 0in /  0.0mm
03:44 67.1 °F /  19.5 °C 50.5 °F /  10.3 °C 30in /  1016.5hPa Calm     55.4% 0in /  0.0mm
03:49 67.1 °F /  19.5 °C 50.4 °F /  10.2 °C 30in /  1016.5hPa Calm     55.1% 0in /  0.0mm
03:54 67.1 °F /  19.5 °C 50.5 °F /  10.3 °C 30in /  1016.4hPa Calm   2.9mph /  4.7km/h 55.1% 0in /  0.0mm
03:59 67.3 °F /  19.6 °C 50.4 °F /  10.2 °C 30in /  1016.4hPa Calm   3mph /  4.8km/h 54.5% 0in /  0.0mm
04:04 67.3 °F /  19.6 °C 49.8 °F /  9.9 °C 30in /  1016.4hPa Calm   3.6mph /  5.8km/h 53.5% 0in /  0.0mm
04:09 67.3 °F /  19.6 °C 49.3 °F /  9.6 °C 30in /  1016.3hPa Sur 0.7mph /  1.1km/h 4mph /  6.4km/h 52.4% 0in /  0.0mm
04:14 67.5 °F /  19.7 °C 48.9 °F /  9.4 °C 30in /  1016.3hPa Sur 1.8mph /  2.9km/h 3mph /  4.8km/h 51.4% 0in /  0.0mm
04:19 67.5 °F /  19.7 °C 49.8 °F /  9.9 °C 30in /  1016.3hPa Sur 1.2mph /  1.9km/h   53.3% 0in /  0.0mm
04:24 67.5 °F /  19.7 °C 50.5 °F /  10.3 °C 30in /  1016.1hPa Calm     54.8% 0in /  0.0mm
04:29 67.5 °F /  19.7 °C 49.8 °F /  9.9 °C 30in /  1016.1hPa Calm     53.5% 0in /  0.0mm
04:34 67.3 °F /  19.6 °C 48.9 °F /  9.4 °C 30in /  1016.1hPa Calm   3.6mph /  5.8km/h 52% 0in /  0.0mm
04:39 67.1 °F /  19.5 °C 48.7 °F /  9.3 °C 30in /  1016.0hPa SSE 0.7mph /  1.1km/h 5.9mph /  9.5km/h 51.6% 0in /  0.0mm
04:44 66.7 °F /  19.3 °C 48.4 °F /  9.1 °C 30in /  1016.0hPa SSE 2mph /  3.2km/h 6mph /  9.7km/h 51.8% 0in /  0.0mm
04:49 66.6 °F /  19.2 °C 48.9 °F /  9.4 °C 30in /  1016.0hPa SSE 2.5mph /  4.1km/h 6mph /  9.7km/h 52.9% 0in /  0.0mm
04:54 66.4 °F /  19.1 °C 49.1 °F /  9.5 °C 30in /  1015.9hPa Sur 3.6mph /  5.8km/h 5.8mph /  9.3km/h 53.9% 0in /  0.0mm
04:59 66.4 °F /  19.1 °C 49.3 °F /  9.6 °C 30in /  1015.9hPa Sur 3.4mph /  5.5km/h 6mph /  9.7km/h 54% 0in /  0.0mm
05:04 66.4 °F /  19.1 °C 49.6 °F /  9.8 °C 30in /  1015.9hPa SSO 3.1mph /  5km/h 6mph /  9.7km/h 55% 0in /  0.0mm
05:09 66.6 °F /  19.2 °C 49.8 °F /  9.9 °C 30in /  1015.8hPa Sur 3mph /  4.9km/h 5mph /  8km/h 55% 0in /  0.0mm
05:14 66.6 °F /  19.2 °C 49.8 °F /  9.9 °C 30in /  1015.8hPa SSO 2.9mph /  4.7km/h 5.8mph /  9.3km/h 54.9% 0in /  0.0mm
05:19 66.6 °F /  19.2 °C 49.5 °F /  9.7 °C 30in /  1015.9hPa Sur 3.1mph /  5km/h 6mph /  9.7km/h 54% 0in /  0.0mm
05:24 66.6 °F /  19.2 °C 49.5 °F /  9.7 °C 30in /  1015.9hPa SSO 3.6mph /  5.8km/h 6mph /  9.7km/h 54% 0in /  0.0mm
05:29 66.6 °F /  19.2 °C 49.1 °F /  9.5 °C 30in /  1015.9hPa SSO 3.4mph /  5.5km/h 6.9mph /  11.1km/h 53.6% 0in /  0.0mm
05:34 66.6 °F /  19.2 °C 48.9 °F /  9.4 °C 30in /  1015.9hPa SO 3.1mph /  5km/h 7mph /  11.3km/h 53% 0in /  0.0mm
05:39 66.6 °F /  19.2 °C 48.6 °F /  9.2 °C 30in /  1015.9hPa SO 3.2mph /  5.2km/h 7mph /  11.3km/h 52.3% 0in /  0.0mm
05:44 66.6 °F /  19.2 °C 48.4 °F /  9.1 °C 30in /  1015.9hPa OSO 3.6mph /  5.8km/h 7mph /  11.3km/h 52% 0in /  0.0mm
05:49 66.6 °F /  19.2 °C 48.4 °F /  9.1 °C 30in /  1016.1hPa SO 3.2mph /  5.1km/h 6mph /  9.7km/h 52% 0in /  0.0mm
05:54 66.6 °F /  19.2 °C 48.4 °F /  9.1 °C 30in /  1016.1hPa SSO 2.4mph /  3.9km/h 6.4mph /  10.3km/h 52% 0in /  0.0mm
05:59 66.6 °F /  19.2 °C 48.4 °F /  9.1 °C 30in /  1016.1hPa SSO 2.8mph /  4.5km/h 7.4mph /  11.9km/h 52% 0in /  0.0mm
06:04 66.6 °F /  19.2 °C 48.9 °F /  9.4 °C 30in /  1016.3hPa Sur 3.6mph /  5.8km/h 7mph /  11.3km/h 53% 0in /  0.0mm
06:09 66.4 °F /  19.1 °C 48.7 °F /  9.3 °C 30in /  1016.3hPa SE 3.6mph /  5.8km/h 6.2mph /  10km/h 53.2% 0in /  0.0mm
06:14 65.8 °F /  18.8 °C 48.7 °F /  9.3 °C 30in /  1016.3hPa SE 3.6mph /  5.8km/h 6mph /  9.7km/h 54% 0in /  0.0mm
06:19 65.7 °F /  18.7 °C 48.7 °F /  9.3 °C 30in /  1016.4hPa SE 3.4mph /  5.4km/h 5mph /  8km/h 54.4% 0in /  0.0mm
06:24 65.3 °F /  18.5 °C 48.7 °F /  9.3 °C 30in /  1016.4hPa SE 2.9mph /  4.7km/h 5mph /  8km/h 55% 0in /  0.0mm
06:29 64.9 °F /  18.3 °C 48.4 °F /  9.1 °C 30in /  1016.4hPa SE 2.7mph /  4.4km/h 5mph /  8km/h 55% 0in /  0.0mm
06:34 64.8 °F /  18.2 °C 48.6 °F /  9.2 °C 30in /  1016.5hPa SE 2.4mph /  3.9km/h 3mph /  4.8km/h 55.8% 0in /  0.0mm
06:39 64.8 °F /  18.2 °C 48.7 °F /  9.3 °C 30in /  1016.5hPa SE 2.2mph /  3.5km/h 3mph /  4.8km/h 56% 0in /  0.0mm
06:44 64.8 °F /  18.2 °C 48.7 °F /  9.3 °C 30in /  1016.5hPa SE 1.8mph /  2.9km/h 3.5mph /  5.6km/h 56% 0in /  0.0mm
06:49 64.9 °F /  18.3 °C 48.9 °F /  9.4 °C 30in /  1016.7hPa SE 1.2mph /  1.9km/h 3mph /  4.8km/h 56% 0in /  0.0mm
06:54 64.9 °F /  18.3 °C 48.4 °F /  9.1 °C 30in /  1016.7hPa Calm   3.5mph /  5.6km/h 55.1% 0in /  0.0mm
06:59 65.1 °F /  18.4 °C 48.6 °F /  9.2 °C 30in /  1016.7hPa OSO 0.5mph /  0.8km/h 3.6mph /  5.8km/h 55% 0in /  0.0mm
07:04 65.1 °F /  18.4 °C 48.6 °F /  9.2 °C 30in /  1017.0hPa Oeste 1.4mph /  2.2km/h 4mph /  6.4km/h 55% 0in /  0.0mm
07:09 65.1 °F /  18.4 °C 48.6 °F /  9.2 °C 30in /  1017.0hPa ONO 1.6mph /  2.5km/h 3.5mph /  5.6km/h 55% 0in /  0.0mm
07:14 65.1 °F /  18.4 °C 48.6 °F /  9.2 °C 30in /  1017.0hPa ONO 1.8mph /  2.9km/h 3mph /  4.8km/h 55.2% 0in /  0.0mm
07:19 65.1 °F /  18.4 °C 48.7 °F /  9.3 °C 30in /  1017.1hPa ONO 1.7mph /  2.7km/h 3mph /  4.8km/h 55.2% 0in /  0.0mm
07:24 65.5 °F /  18.6 °C 48.9 °F /  9.4 °C 30in /  1017.1hPa Oeste 1.4mph /  2.2km/h 3.6mph /  5.8km/h 55.2% 0in /  0.0mm
07:29 65.7 °F /  18.7 °C 48.9 °F /  9.4 °C 30in /  1017.1hPa ESE 1.6mph /  2.5km/h 4.6mph /  7.4km/h 55% 0in /  0.0mm
07:34 65.7 °F /  18.7 °C 48.9 °F /  9.4 °C 30in /  1017.2hPa ESE 1.8mph /  2.9km/h 5mph /  8km/h 55% 0in /  0.0mm
07:39 65.7 °F /  18.7 °C 48.9 °F /  9.4 °C 30in /  1017.2hPa ESE 1.8mph /  2.9km/h 5mph /  8km/h 55% 0in /  0.0mm
07:44 65.8 °F /  18.8 °C 49.1 °F /  9.5 °C 30in /  1017.2hPa ESE 1.8mph /  2.9km/h 4mph /  6.4km/h 55% 0in /  0.0mm
07:49 66 °F /  18.9 °C 49.5 °F /  9.7 °C 30in /  1017.3hPa ESE 1.7mph /  2.7km/h 3.1mph /  5km/h 55% 0in /  0.0mm
07:54 66.4 °F /  19.1 °C 49.5 °F /  9.7 °C 30in /  1017.3hPa ESE 1.4mph /  2.2km/h 4mph /  6.4km/h 54.7% 0in /  0.0mm
07:59 66.6 °F /  19.2 °C 49.8 °F /  9.9 °C 30in /  1017.3hPa ESE 1.6mph /  2.6km/h 5mph /  8km/h 54.9% 0in /  0.0mm
08:04 66.7 °F /  19.3 °C 49.8 °F /  9.9 °C 30.1in /  1017.5hPa SO 2mph /  3.2km/h 5mph /  8km/h 54.5% 0in /  0.0mm
08:09 67.1 °F /  19.5 °C 49.6 °F /  9.8 °C 30.1in /  1017.5hPa SO 1.8mph /  2.9km/h 4mph /  6.4km/h 53.4% 0in /  0.0mm
08:14 67.5 °F /  19.7 °C 48.7 °F /  9.3 °C 30.1in /  1017.5hPa OSO 1.4mph /  2.2km/h 5.2mph /  8.4km/h 51% 0in /  0.0mm
08:19 67.6 °F /  19.8 °C 48.6 °F /  9.2 °C 30.1in /  1017.7hPa OSO 1.7mph /  2.8km/h 5mph /  8km/h 50.3% 0in /  0.0mm
08:24 68.2 °F /  20.1 °C 48.6 °F /  9.2 °C 30.1in /  1017.7hPa SO 2.4mph /  3.9km/h 5.9mph /  9.5km/h 49.7% 0in /  0.0mm
08:29 68.4 °F /  20.2 °C 48 °F /  8.9 °C 30.1in /  1017.7hPa OSO 2.5mph /  4.1km/h 6mph /  9.7km/h 48.2% 0in /  0.0mm
08:34 68.4 °F /  20.2 °C 47.8 °F /  8.8 °C 30.1in /  1017.8hPa OSO 2.9mph /  4.7km/h 6mph /  9.7km/h 48% 0in /  0.0mm
08:39 68.5 °F /  20.3 °C 48 °F /  8.9 °C 30.1in /  1017.8hPa SO 2.6mph /  4.2km/h 5mph /  8km/h 48% 0in /  0.0mm
08:44 68.7 °F /  20.4 °C 47.8 °F /  8.8 °C 30.1in /  1017.8hPa Oeste 2mph /  3.2km/h 5mph /  8km/h 47.4% 0in /  0.0mm
08:49 69.1 °F /  20.6 °C 48 °F /  8.9 °C 30.1in /  1017.9hPa ONO 1.9mph /  3.1km/h 5mph /  8km/h 47% 0in /  0.0mm
08:54 69.6 °F /  20.9 °C 48.6 °F /  9.2 °C 30.1in /  1017.9hPa ONO 1.8mph /  2.9km/h 2mph /  3.2km/h 47% 0in /  0.0mm
08:59 70.2 °F /  21.2 °C 48.6 °F /  9.2 °C 30.1in /  1017.9hPa OSO 1.2mph /  1.9km/h 3.5mph /  5.6km/h 46.2% 0in /  0.0mm
09:04 70.7 °F /  21.5 °C 48.9 °F /  9.4 °C 30.1in /  1018.0hPa Calm   3.5mph /  5.6km/h 46% 0in /  0.0mm
09:09 71.2 °F /  21.8 °C 49.5 °F /  9.7 °C 30.1in /  1018.0hPa ENE 0.6mph /  1km/h 4.7mph /  7.6km/h 45.9% 0in /  0.0mm
09:14 71.6 °F /  22 °C 49.3 °F /  9.6 °C 30.1in /  1018.0hPa NNE 1.8mph /  2.9km/h 5mph /  8km/h 45.1% 0in /  0.0mm
09:19 72 °F /  22.2 °C 49.3 °F /  9.6 °C 30.1in /  1018.1hPa NNE 1.8mph /  2.9km/h 4.6mph /  7.4km/h 44.9% 0in /  0.0mm
09:24 72.1 °F /  22.3 °C 49.1 °F /  9.5 °C 30.1in /  1018.1hPa NE 1.8mph /  2.9km/h 5mph /  8km/h 44% 0in /  0.0mm
09:29 72.3 °F /  22.4 °C 48.7 °F /  9.3 °C 30.1in /  1018.1hPa Este 1.8mph /  2.9km/h 5mph /  8km/h 43.1% 0in /  0.0mm
09:34 72.3 °F /  22.4 °C 48.7 °F /  9.3 °C 30.1in /  1018.3hPa ESE 1.8mph /  2.9km/h 5mph /  8km/h 43.1% 0in /  0.0mm
09:39 72.5 °F /  22.5 °C 48.7 °F /  9.3 °C 30.1in /  1018.3hPa ESE 2mph /  3.2km/h 5.4mph /  8.7km/h 43.1% 0in /  0.0mm
09:44 72.3 °F /  22.4 °C 48.6 °F /  9.2 °C 30.1in /  1018.3hPa ESE 2.4mph /  3.9km/h 6mph /  9.7km/h 43% 0in /  0.0mm
09:49 72.1 °F /  22.3 °C 48.7 °F /  9.3 °C 30.1in /  1018.3hPa ENE 2.7mph /  4.3km/h 6.9mph /  11.1km/h 43.5% 0in /  0.0mm
09:54 72 °F /  22.2 °C 49.5 °F /  9.7 °C 30.1in /  1018.3hPa NNE 3.1mph /  5km/h 7mph /  11.3km/h 44.9% 0in /  0.0mm
09:59 72 °F /  22.2 °C 51.3 °F /  10.7 °C 30.1in /  1018.3hPa NE 3.3mph /  5.3km/h 7.4mph /  11.9km/h 48.1% 0in /  0.0mm
10:04 72 °F /  22.2 °C 52.2 °F /  11.2 °C 30.1in /  1018.4hPa ENE 3.6mph /  5.8km/h 9.7mph /  15.6km/h 49.9% 0in /  0.0mm
10:09 71.8 °F /  22.1 °C 52 °F /  11.1 °C 30.1in /  1018.4hPa NE 4mph /  6.4km/h 10mph /  16.1km/h 49.9% 0in /  0.0mm
10:14 71.4 °F /  21.9 °C 52.3 °F /  11.3 °C 30.1in /  1018.4hPa NNE 4.7mph /  7.6km/h 8mph /  12.9km/h 50.9% 0in /  0.0mm
10:19 71.6 °F /  22 °C 52.5 °F /  11.4 °C 30.1in /  1018.4hPa NNE 4.1mph /  6.6km/h 6mph /  9.7km/h 51% 0in /  0.0mm
10:24 72.1 °F /  22.3 °C 52.9 °F /  11.6 °C 30.1in /  1018.3hPa NE 3.1mph /  5km/h 6.9mph /  11.1km/h 50.7% 0in /  0.0mm
10:29 72.5 °F /  22.5 °C 53.2 °F /  11.8 °C 30.1in /  1018.3hPa NNE 3.1mph /  5km/h 7mph /  11.3km/h 50.8% 0in /  0.0mm
10:34 72.9 °F /  22.7 °C 53.8 °F /  12.1 °C 30.1in /  1018.3hPa NE 3.1mph /  5km/h 9.7mph /  15.6km/h 51.3% 0in /  0.0mm
10:39 73 °F /  22.8 °C 54.3 °F /  12.4 °C 30.1in /  1018.2hPa Este 3.5mph /  5.7km/h 10mph /  16.1km/h 52% 0in /  0.0mm
10:44 73.2 °F /  22.9 °C 54.9 °F /  12.7 °C 30.1in /  1018.2hPa Este 4.3mph /  6.9km/h 9.2mph /  14.8km/h 52.6% 0in /  0.0mm
10:49 73.4 °F /  23 °C 55.2 °F /  12.9 °C 30.1in /  1018.3hPa ENE 4.3mph /  6.9km/h 9.2mph /  14.8km/h 52.9% 0in /  0.0mm
10:54 73.8 °F /  23.2 °C 55.4 °F /  13 °C 30.1in /  1018.3hPa ENE 4.3mph /  6.9km/h 9mph /  14.5km/h 52.9% 0in /  0.0mm
10:59 73.8 °F /  23.2 °C 55.9 °F /  13.3 °C 30.1in /  1018.3hPa NE 4.2mph /  6.8km/h 9.2mph /  14.8km/h 53.6% 0in /  0.0mm
11:04 73.8 °F /  23.2 °C 56.3 °F /  13.5 °C 30.1in /  1018.3hPa NNE 4mph /  6.5km/h 9mph /  14.5km/h 54.2% 0in /  0.0mm
11:09 73.9 °F /  23.3 °C 56.7 °F /  13.7 °C 30.1in /  1018.2hPa ENE 3.6mph /  5.8km/h 8.1mph /  13km/h 54.6% 0in /  0.0mm
11:14 74.1 °F /  23.4 °C 57.2 °F /  14 °C 30.1in /  1018.2hPa NE 2.9mph /  4.7km/h 8.1mph /  13km/h 55.7% 0in /  0.0mm
11:19 74.3 °F /  23.5 °C 57.6 °F /  14.2 °C 30.1in /  1018.2hPa North 3.4mph /  5.4km/h 7mph /  11.3km/h 56% 0in /  0.0mm
11:24 74.5 °F /  23.6 °C 57.7 °F /  14.3 °C 30.1in /  1018.2hPa NE 4.3mph /  6.9km/h 7mph /  11.3km/h 56.1% 0in /  0.0mm
11:29 74.8 °F /  23.8 °C 57.6 °F /  14.2 °C 30.1in /  1018.2hPa NNE 3.7mph /  5.9km/h 5.8mph /  9.3km/h 55% 0in /  0.0mm
11:34 75.2 °F /  24 °C 57.7 °F /  14.3 °C 30.1in /  1018.2hPa Este 2.4mph /  3.9km/h 6.9mph /  11.1km/h 54.7% 0in /  0.0mm
11:39 75.4 °F /  24.1 °C 57.4 °F /  14.1 °C 30.1in /  1017.9hPa ENE 3.3mph /  5.3km/h 15mph /  24.1km/h 53.5% 0in /  0.0mm
11:44 75.4 °F /  24.1 °C 57.6 °F /  14.2 °C 30.1in /  1017.9hPa Este 5.2mph /  8.4km/h 15mph /  24.1km/h 53.8% 0in /  0.0mm
11:49 75.6 °F /  24.2 °C 57.2 °F /  14 °C 30.1in /  1018.0hPa ENE 5.6mph /  9km/h 13.8mph /  22.2km/h 53% 0in /  0.0mm
11:54 75.6 °F /  24.2 °C 57.6 °F /  14.2 °C 30.1in /  1018.0hPa Este 6.4mph /  10.3km/h 15mph /  24.1km/h 53.9% 0in /  0.0mm
11:59 75.6 °F /  24.2 °C 58.8 °F /  14.9 °C 30.1in /  1018.0hPa ENE 6.8mph /  11km/h 15.2mph /  24.5km/h 55.9% 0in /  0.0mm
12:04 75.6 °F /  24.2 °C 59.4 °F /  15.2 °C 30.1in /  1018.0hPa ENE 7.6mph /  12.2km/h 16.1mph /  25.9km/h 57% 0in /  0.0mm
12:09 75.7 °F /  24.3 °C 59.7 °F /  15.4 °C 30.1in /  1018.0hPa ENE 7.5mph /  12.1km/h 16mph /  25.7km/h 57.3% 0in /  0.0mm
12:14 75.7 °F /  24.3 °C 60.1 °F /  15.6 °C 30.1in /  1018.0hPa ENE 7.4mph /  11.9km/h 16.1mph /  25.9km/h 58.3% 0in /  0.0mm
12:19 75.4 °F /  24.1 °C 60.3 °F /  15.7 °C 30.1in /  1018.1hPa ENE 8mph /  12.9km/h 16.1mph /  25.9km/h 59.6% 0in /  0.0mm
12:24 75 °F /  23.9 °C 60.6 °F /  15.9 °C 30.1in /  1018.1hPa Este 9.2mph /  14.8km/h 16mph /  25.7km/h 60.8% 0in /  0.0mm
12:29 75.4 °F /  24.1 °C 60.6 °F /  15.9 °C 30.1in /  1018.1hPa NE 8.6mph /  13.9km/h 17.5mph /  28.2km/h 60.3% 0in /  0.0mm
12:34 75.2 °F /  24 °C 60.4 °F /  15.8 °C 30.1in /  1018.1hPa NE 7.6mph /  12.2km/h 17mph /  27.4km/h 60% 0in /  0.0mm
12:39 75.2 °F /  24 °C 60.8 °F /  16 °C 30.1in /  1018.0hPa NE 8.3mph /  13.4km/h 15.2mph /  24.5km/h 60.9% 0in /  0.0mm
12:44 75.6 °F /  24.2 °C 61 °F /  16.1 °C 30.1in /  1018.0hPa ENE 9.7mph /  15.6km/h 15mph /  24.1km/h 60.9% 0in /  0.0mm
12:49 75.6 °F /  24.2 °C 60.8 °F /  16 °C 30.1in /  1018.0hPa ENE 9.4mph /  15.1km/h 17.3mph /  27.8km/h 60.2% 0in /  0.0mm
12:54 76.1 °F /  24.5 °C 61 °F /  16.1 °C 30.1in /  1017.8hPa ENE 8.7mph /  14km/h 17.3mph /  27.8km/h 59.6% 0in /  0.0mm
12:59 76.3 °F /  24.6 °C 61 °F /  16.1 °C 30.1in /  1017.8hPa NE 8.9mph /  14.3km/h 19.7mph /  31.7km/h 59.2% 0in /  0.0mm
13:04 76.1 °F /  24.5 °C 61 °F /  16.1 °C 30.1in /  1017.8hPa ENE 9.2mph /  14.8km/h 20mph /  32.2km/h 59.7% 0in /  0.0mm
13:09 75.6 °F /  24.2 °C 60.6 °F /  15.9 °C 30.1in /  1017.8hPa NE 9.4mph /  15.2km/h 19mph /  30.6km/h 59.7% 0in /  0.0mm
13:14 75.6 °F /  24.2 °C 60.4 °F /  15.8 °C 30.1in /  1017.8hPa NE 10mph /  16.1km/h 19mph /  30.6km/h 59.3% 0in /  0.0mm
13:19 75.9 °F /  24.4 °C 60.6 °F /  15.9 °C 30.1in /  1017.8hPa NE 9.7mph /  15.6km/h 19mph /  30.6km/h 59% 0in /  0.0mm
13:24 76.3 °F /  24.6 °C 60.4 °F /  15.8 °C 30.1in /  1017.8hPa ENE 9.2mph /  14.8km/h 16.1mph /  25.9km/h 58.3% 0in /  0.0mm
13:29 76.6 °F /  24.8 °C 60.8 °F /  16 °C 30.1in /  1017.8hPa ENE 9.2mph /  14.8km/h 17.3mph /  27.8km/h 58% 0in /  0.0mm
13:34 76.5 °F /  24.7 °C 60.6 °F /  15.9 °C 30.1in /  1017.9hPa ENE 9.2mph /  14.8km/h 17mph /  27.4km/h 58.1% 0in /  0.0mm
13:39 76.3 °F /  24.6 °C 60.3 °F /  15.7 °C 30.1in /  1017.9hPa ENE 8.6mph /  13.9km/h 15.2mph /  24.5km/h 57.8% 0in /  0.0mm
13:44 76.8 °F /  24.9 °C 60.3 °F /  15.7 °C 30.1in /  1017.9hPa NE 7.6mph /  12.2km/h 16.8mph /  27km/h 56.5% 0in /  0.0mm
13:49 76.8 °F /  24.9 °C 59.7 °F /  15.4 °C 30.1in /  1017.9hPa ENE 7.8mph /  12.5km/h 17.3mph /  27.8km/h 55.6% 0in /  0.0mm
13:54 76.8 °F /  24.9 °C 59.5 °F /  15.3 °C 30.1in /  1017.6hPa ENE 8.1mph /  13km/h 19mph /  30.6km/h 55.2% 0in /  0.0mm
13:59 76.8 °F /  24.9 °C 59.2 °F /  15.1 °C 30.1in /  1017.6hPa NE 8.1mph /  13km/h 19mph /  30.6km/h 54.5% 0in /  0.0mm
14:04 76.8 °F /  24.9 °C 59.4 °F /  15.2 °C 30.1in /  1017.7hPa ENE 8.1mph /  13km/h 18.4mph /  29.6km/h 54.6% 0in /  0.0mm
14:09 77.2 °F /  25.1 °C 59.4 °F /  15.2 °C 30.1in /  1017.7hPa Este 8.3mph /  13.4km/h 18mph /  29km/h 54.2% 0in /  0.0mm
14:14 77 °F /  25 °C 59.7 °F /  15.4 °C 30.1in /  1017.7hPa Este 8.7mph /  14km/h 16.1mph /  25.9km/h 55.1% 0in /  0.0mm
14:19 76.8 °F /  24.9 °C 59.9 °F /  15.5 °C 30.1in /  1017.7hPa ENE 8.7mph /  14km/h 16mph /  25.7km/h 56% 0in /  0.0mm
14:24 76.8 °F /  24.9 °C 59.7 °F /  15.4 °C 30in /  1017.4hPa ENE 8.7mph /  14km/h 17.3mph /  27.8km/h 55.6% 0in /  0.0mm
14:29 76.5 °F /  24.7 °C 59.7 °F /  15.4 °C 30in /  1017.4hPa ENE 8.9mph /  14.3km/h 17.3mph /  27.8km/h 56% 0in /  0.0mm
14:34 76.6 °F /  24.8 °C 60.1 °F /  15.6 °C 30in /  1017.4hPa NE 9.2mph /  14.8km/h 16.1mph /  25.9km/h 56.5% 0in /  0.0mm
14:39 76.6 °F /  24.8 °C 60.1 °F /  15.6 °C 30in /  1017.3hPa Este 8.9mph /  14.4km/h 16.1mph /  25.9km/h 56.6% 0in /  0.0mm
14:44 76.6 °F /  24.8 °C 60.3 °F /  15.7 °C 30in /  1017.3hPa ENE 8.5mph /  13.7km/h 17.5mph /  28.2km/h 57% 0in /  0.0mm
14:49 76.5 °F /  24.7 °C 60.1 °F /  15.6 °C 30in /  1017.3hPa NE 8.5mph /  13.7km/h 17.3mph /  27.8km/h 57.1% 0in /  0.0mm
14:54 76.6 °F /  24.8 °C 60.8 °F /  16 °C 30in /  1017.1hPa ENE 8.5mph /  13.7km/h 17.5mph /  28.2km/h 58% 0in /  0.0mm
14:59 76.1 °F /  24.5 °C 60.4 °F /  15.8 °C 30in /  1017.1hPa ENE 8.9mph /  14.4km/h 17.8mph /  28.6km/h 58.5% 0in /  0.0mm
15:04 75.9 °F /  24.4 °C 60.6 °F /  15.9 °C 30in /  1017.1hPa ENE 9.7mph /  15.6km/h 18mph /  29km/h 59% 0in /  0.0mm
15:09 75.9 °F /  24.4 °C 60.4 °F /  15.8 °C 30in /  1016.9hPa ENE 8.9mph /  14.4km/h 15.2mph /  24.5km/h 58.5% 0in /  0.0mm
15:14 75.9 °F /  24.4 °C 60.3 °F /  15.7 °C 30in /  1016.9hPa ENE 7.6mph /  12.2km/h 15mph /  24.1km/h 58.2% 0in /  0.0mm
15:19 75.7 °F /  24.3 °C 60.1 °F /  15.6 °C 30in /  1016.9hPa ENE 7.8mph /  12.5km/h 15.2mph /  24.5km/h 58.1% 0in /  0.0mm
15:24 75.7 °F /  24.3 °C 60.4 °F /  15.8 °C 30in /  1016.8hPa Este 8.1mph /  13km/h 15mph /  24.1km/h 59.1% 0in /  0.0mm
15:29 75.6 °F /  24.2 °C 60.6 °F /  15.9 °C 30in /  1016.8hPa ENE 8.3mph /  13.3km/h 15mph /  24.1km/h 59.8% 0in /  0.0mm
15:34 75.6 °F /  24.2 °C 60.6 °F /  15.9 °C 30in /  1017.0hPa NE 8.7mph /  14km/h 16.3mph /  26.2km/h 59.7% 0in /  0.0mm
15:39 75.4 °F /  24.1 °C 60.4 °F /  15.8 °C 30in /  1017.0hPa ENE 8.7mph /  14km/h 16mph /  25.7km/h 59.7% 0in /  0.0mm
15:44 75.4 °F /  24.1 °C 60.4 °F /  15.8 °C 30in /  1017.0hPa Este 8.7mph /  14km/h 14mph /  22.5km/h 59.6% 0in /  0.0mm
15:49 75.4 °F /  24.1 °C 60.3 °F /  15.7 °C 30in /  1017.4hPa ENE 8.3mph /  13.4km/h 13.8mph /  22.2km/h 59.6% 0in /  0.0mm
15:54 75.4 °F /  24.1 °C 60.4 °F /  15.8 °C 30in /  1017.4hPa NE 7.6mph /  12.2km/h 14mph /  22.5km/h 60% 0in /  0.0mm
15:59 75.2 °F /  24 °C 60.8 °F /  16 °C 30in /  1017.4hPa ENE 7.6mph /  12.2km/h 14mph /  22.5km/h 61% 0in /  0.0mm
16:04 75 °F /  23.9 °C 60.6 °F /  15.9 °C 30in /  1017.4hPa ENE 7.6mph /  12.2km/h 15mph /  24.1km/h 60.9% 0in /  0.0mm
16:09 74.8 °F /  23.8 °C 60.4 °F /  15.8 °C 30in /  1016.9hPa ENE 7.9mph /  12.7km/h 15mph /  24.1km/h 61% 0in /  0.0mm
16:14 74.8 °F /  23.8 °C 60.8 °F /  16 °C 30in /  1016.9hPa ENE 8.5mph /  13.7km/h 15.2mph /  24.5km/h 61.9% 0in /  0.0mm
16:19 74.7 °F /  23.7 °C 60.3 °F /  15.7 °C 30in /  1016.9hPa ENE 8.5mph /  13.7km/h 16.1mph /  25.9km/h 61.1% 0in /  0.0mm
16:24 74.7 °F /  23.7 °C 60.3 °F /  15.7 °C 30in /  1016.9hPa ENE 8.5mph /  13.7km/h 16mph /  25.7km/h 60.8% 0in /  0.0mm
16:29 74.8 °F /  23.8 °C 60.4 °F /  15.8 °C 30in /  1016.9hPa NE 8mph /  12.8km/h 15.9mph /  25.6km/h 61% 0in /  0.0mm
16:34 74.5 °F /  23.6 °C 60.1 °F /  15.6 °C 30in /  1016.9hPa NE 6.9mph /  11.1km/h 17.3mph /  27.8km/h 61% 0in /  0.0mm
16:39 74.3 °F /  23.5 °C 60.4 °F /  15.8 °C 30in /  1016.7hPa ENE 7.9mph /  12.7km/h 17mph /  27.4km/h 62.3% 0in /  0.0mm
16:44 74.1 °F /  23.4 °C 60.6 °F /  15.9 °C 30in /  1016.7hPa ENE 9.7mph /  15.6km/h 18.4mph /  29.6km/h 62.8% 0in /  0.0mm
16:49 74.1 °F /  23.4 °C 60.8 °F /  16 °C 30in /  1016.7hPa ENE 9.8mph /  15.8km/h 18mph /  29km/h 63.4% 0in /  0.0mm
16:54 74.1 °F /  23.4 °C 60.6 °F /  15.9 °C 30in /  1016.7hPa NE 10mph /  16.1km/h 17mph /  27.4km/h 62.8% 0in /  0.0mm
16:59 74.1 °F /  23.4 °C 61 °F /  16.1 °C 30in /  1016.7hPa NE 9.1mph /  14.6km/h 15.2mph /  24.5km/h 63.6% 0in /  0.0mm
17:04 74.1 °F /  23.4 °C 61 °F /  16.1 °C 30in /  1016.8hPa ENE 7.6mph /  12.2km/h 15mph /  24.1km/h 63.6% 0in /  0.0mm
17:09 74.1 °F /  23.4 °C 61 °F /  16.1 °C 30in /  1016.8hPa ENE 8mph /  12.8km/h 16.3mph /  26.2km/h 63.4% 0in /  0.0mm
17:14 74.5 °F /  23.6 °C 60.4 °F /  15.8 °C 30in /  1016.8hPa NE 8.5mph /  13.7km/h 16mph /  25.7km/h 61.8% 0in /  0.0mm
17:19 74.5 °F /  23.6 °C 60.4 °F /  15.8 °C 30in /  1016.8hPa ENE 8.5mph /  13.7km/h 16.1mph /  25.9km/h 61.9% 0in /  0.0mm
17:24 74.7 °F /  23.7 °C 61 °F /  16.1 °C 30in /  1016.6hPa ENE 8.5mph /  13.7km/h 16.1mph /  25.9km/h 62.4% 0in /  0.0mm
17:29 74.8 °F /  23.8 °C 61 °F /  16.1 °C 30in /  1016.6hPa Este 8mph /  12.8km/h 16mph /  25.7km/h 62.1% 0in /  0.0mm
17:34 74.8 °F /  23.8 °C 60.6 °F /  15.9 °C 30in /  1016.7hPa NE 6.9mph /  11.1km/h 16.1mph /  25.9km/h 61.4% 0in /  0.0mm
17:39 74.7 °F /  23.7 °C 61 °F /  16.1 °C 30in /  1016.7hPa NE 7.3mph /  11.7km/h 16mph /  25.7km/h 62.4% 0in /  0.0mm
17:44 74.7 °F /  23.7 °C 61 °F /  16.1 °C 30in /  1016.7hPa ENE 8.1mph /  13km/h 14mph /  22.5km/h 62.4% 0in /  0.0mm
17:49 74.8 °F /  23.8 °C 60.8 °F /  16 °C 30in /  1016.7hPa NE 7.8mph /  12.6km/h 16.1mph /  25.9km/h 61.5% 0in /  0.0mm
17:54 75 °F /  23.9 °C 60.8 °F /  16 °C 30in /  1016.7hPa ENE 7.4mph /  11.9km/h 16mph /  25.7km/h 61.2% 0in /  0.0mm
17:59 75.2 °F /  24 °C 61 °F /  16.1 °C 30in /  1016.7hPa Este 7.2mph /  11.6km/h 13mph /  20.9km/h 61.2% 0in /  0.0mm
18:04 75.4 °F /  24.1 °C 60.6 °F /  15.9 °C 30in /  1016.7hPa NE 6.9mph /  11.1km/h 13mph /  20.9km/h 60.2% 0in /  0.0mm
18:09 75.4 °F /  24.1 °C 61 °F /  16.1 °C 30in /  1016.5hPa ENE 7.1mph /  11.4km/h 13mph /  20.9km/h 61.1% 0in /  0.0mm
18:14 75.2 °F /  24 °C 60.4 °F /  15.8 °C 30in /  1016.5hPa Este 7.4mph /  11.9km/h 13mph /  20.9km/h 60.2% 0in /  0.0mm
18:19 74.7 °F /  23.7 °C 60.6 °F /  15.9 °C 30in /  1016.5hPa NE 7.2mph /  11.6km/h 12.3mph /  19.8km/h 61.4% 0in /  0.0mm
18:24 74.5 °F /  23.6 °C 60.6 °F /  15.9 °C 30in /  1016.4hPa ENE 6.9mph /  11.1km/h 14mph /  22.5km/h 62% 0in /  0.0mm
18:29 74.3 °F /  23.5 °C 59.7 °F /  15.4 °C 30in /  1016.4hPa ENE 7.1mph /  11.4km/h 16.1mph /  25.9km/h 60.6% 0in /  0.0mm
18:34 74.1 °F /  23.4 °C 59 °F /  15 °C 30in /  1016.4hPa NE 7.4mph /  11.9km/h 16mph /  25.7km/h 59.3% 0in /  0.0mm
18:39 74.1 °F /  23.4 °C 59.7 °F /  15.4 °C 30in /  1016.3hPa NE 7.6mph /  12.3km/h 14mph /  22.5km/h 61% 0in /  0.0mm
18:44 73.9 °F /  23.3 °C 59.5 °F /  15.3 °C 30in /  1016.3hPa ENE 8.1mph /  13km/h 14mph /  22.5km/h 61% 0in /  0.0mm
18:49 73.9 °F /  23.3 °C 59.9 °F /  15.5 °C 30in /  1016.6hPa NE 7.5mph /  12km/h 13mph /  20.9km/h 61.7% 0in /  0.0mm
18:54 73.8 °F /  23.2 °C 59.9 °F /  15.5 °C 30in /  1016.6hPa ENE 6.4mph /  10.3km/h 12.7mph /  20.4km/h 61.9% 0in /  0.0mm
18:59 73.8 °F /  23.2 °C 60.1 °F /  15.6 °C 30in /  1016.6hPa ENE 6.3mph /  10.2km/h 13mph /  20.9km/h 62.3% 0in /  0.0mm
19:04 74.1 °F /  23.4 °C 60.1 °F /  15.6 °C 30in /  1016.6hPa ENE 6.2mph /  10km/h 11.8mph /  19km/h 61.6% 0in /  0.0mm
19:09 73.9 °F /  23.3 °C 60.1 °F /  15.6 °C 30in /  1016.6hPa ENE 6.3mph /  10.1km/h 13.8mph /  22.2km/h 61.8% 0in /  0.0mm
19:14 73.8 °F /  23.2 °C 59.9 °F /  15.5 °C 30in /  1016.6hPa NE 6.4mph /  10.3km/h 14mph /  22.5km/h 61.7% 0in /  0.0mm
19:19 73.8 °F /  23.2 °C 59.7 °F /  15.4 °C 30in /  1016.6hPa NE 6.8mph /  10.9km/h 13mph /  20.9km/h 61.6% 0in /  0.0mm
19:24 73.8 °F /  23.2 °C 60.1 °F /  15.6 °C 30in /  1016.3hPa NE 7.4mph /  11.9km/h 13mph /  20.9km/h 62.2% 0in /  0.0mm
19:29 73.9 °F /  23.3 °C 60.3 °F /  15.7 °C 30in /  1016.3hPa ENE 7mph /  11.3km/h 13.8mph /  22.2km/h 62.5% 0in /  0.0mm
19:34 73.8 °F /  23.2 °C 60.4 °F /  15.8 °C 30in /  1016.3hPa ENE 6.2mph /  10km/h 14mph /  22.5km/h 63% 0in /  0.0mm
19:39 73.8 °F /  23.2 °C 60.4 °F /  15.8 °C 30in /  1016.3hPa ENE 5.7mph /  9.2km/h 9.7mph /  15.6km/h 63.1% 0in /  0.0mm
19:44 73.6 °F /  23.1 °C 60.6 °F /  15.9 °C 30in /  1016.3hPa ENE 4.7mph /  7.6km/h 10.7mph /  17.2km/h 64% 0in /  0.0mm
19:49 73.4 °F /  23 °C 60.4 °F /  15.8 °C 30in /  1016.3hPa ENE 5.2mph /  8.4km/h 11mph /  17.7km/h 64% 0in /  0.0mm
19:54 73.2 °F /  22.9 °C 60.3 °F /  15.7 °C 30in /  1016.3hPa Este 6.2mph /  10km/h 10.7mph /  17.2km/h 64% 0in /  0.0mm
19:59 73 °F /  22.8 °C 60.3 °F /  15.7 °C 30in /  1016.3hPa ENE 6.2mph /  10km/h 11mph /  17.7km/h 64.3% 0in /  0.0mm
20:04 73 °F /  22.8 °C 60.6 °F /  15.9 °C 30in /  1016.3hPa NE 6.2mph /  10km/h 10mph /  16.1km/h 65% 0in /  0.0mm
20:09 73 °F /  22.8 °C 60.6 °F /  15.9 °C 30in /  1016.2hPa ENE 5.9mph /  9.5km/h 8.5mph /  13.7km/h 65% 0in /  0.0mm
20:14 72.9 °F /  22.7 °C 60.4 °F /  15.8 °C 30in /  1016.2hPa ENE 5.2mph /  8.4km/h 9mph /  14.5km/h 65% 0in /  0.0mm
20:19 73 °F /  22.8 °C 60.8 °F /  16 °C 30in /  1016.2hPa ENE 5mph /  8.1km/h 8mph /  12.9km/h 65.7% 0in /  0.0mm
20:24 73 °F /  22.8 °C 61 °F /  16.1 °C 30in /  1016.1hPa Este 4.7mph /  7.6km/h 10.7mph /  17.2km/h 66% 0in /  0.0mm
20:29 72.9 °F /  22.7 °C 60.8 °F /  16 °C 30in /  1016.1hPa Este 4.7mph /  7.6km/h 11mph /  17.7km/h 66% 0in /  0.0mm
20:34 72.9 °F /  22.7 °C 60.8 °F /  16 °C 30in /  1016.1hPa ENE 4.7mph /  7.6km/h 10mph /  16.1km/h 66% 0in /  0.0mm
20:39 72.7 °F /  22.6 °C 60.8 °F /  16 °C 30in /  1016.1hPa ENE 4.9mph /  7.9km/h 9.2mph /  14.8km/h 66.2% 0in /  0.0mm
20:44 72.7 °F /  22.6 °C 61.2 °F /  16.2 °C 30in /  1016.1hPa ENE 5.9mph /  9.5km/h 9mph /  14.5km/h 67% 0in /  0.0mm
20:49 72.7 °F /  22.6 °C 61.2 °F /  16.2 °C 30in /  1016.3hPa Este 5.4mph /  8.7km/h 8mph /  12.9km/h 67% 0in /  0.0mm
20:54 72.7 °F /  22.6 °C 61.2 °F /  16.2 °C 30in /  1016.3hPa ENE 3.6mph /  5.8km/h 6.9mph /  11.1km/h 67% 0in /  0.0mm
20:59 72.7 °F /  22.6 °C 60.8 °F /  16 °C 30in /  1016.3hPa ENE 3.5mph /  5.6km/h 7mph /  11.3km/h 66.3% 0in /  0.0mm
21:04 72.3 °F /  22.4 °C 60.4 °F /  15.8 °C 30in /  1016.5hPa NE 3.1mph /  5km/h 6.2mph /  10km/h 66% 0in /  0.0mm
21:09 72.3 °F /  22.4 °C 60.1 °F /  15.6 °C 30in /  1016.5hPa NE 3.4mph /  5.5km/h 6.2mph /  10km/h 65.4% 0in /  0.0mm
21:14 72.1 °F /  22.3 °C 59.7 °F /  15.4 °C 30in /  1016.5hPa NE 4mph /  6.5km/h 8.7mph /  14km/h 65% 0in /  0.0mm
21:19 72.1 °F /  22.3 °C 59.9 °F /  15.5 °C 30in /  1016.7hPa NE 4.3mph /  6.9km/h 9.2mph /  14.8km/h 65.5% 0in /  0.0mm
21:24 72 °F /  22.2 °C 60.1 °F /  15.6 °C 30in /  1016.7hPa NE 4.7mph /  7.6km/h 9mph /  14.5km/h 66.3% 0in /  0.0mm
21:29 72 °F /  22.2 °C 60.4 °F /  15.8 °C 30in /  1016.7hPa ENE 4.5mph /  7.2km/h 6mph /  9.7km/h 67% 0in /  0.0mm
21:34 72 °F /  22.2 °C 60.3 °F /  15.7 °C 30in /  1016.7hPa NE 4mph /  6.5km/h 5.2mph /  8.4km/h 67% 0in /  0.0mm
21:39 71.8 °F /  22.1 °C 60.3 °F /  15.7 °C 30in /  1016.7hPa NE 3.7mph /  6km/h 5.2mph /  8.4km/h 67% 0in /  0.0mm
21:44 71.8 °F /  22.1 °C 60.3 °F /  15.7 °C 30in /  1016.7hPa NE 3.1mph /  5km/h 5mph /  8km/h 67% 0in /  0.0mm
21:49 71.8 °F /  22.1 °C 60.4 °F /  15.8 °C 30in /  1016.7hPa NE 3.1mph /  5km/h 5.2mph /  8.4km/h 67.7% 0in /  0.0mm
21:54 71.6 °F /  22 °C 60.4 °F /  15.8 °C 30in /  1016.7hPa ENE 3.1mph /  5km/h 5.9mph /  9.5km/h 68% 0in /  0.0mm
21:59 71.6 °F /  22 °C 60.4 °F /  15.8 °C 30in /  1016.7hPa NE 3mph /  4.9km/h 6mph /  9.7km/h 68% 0in /  0.0mm
22:04 71.4 °F /  21.9 °C 60.4 °F /  15.8 °C 30in /  1016.8hPa NE 2.9mph /  4.6km/h 6mph /  9.7km/h 68.5% 0in /  0.0mm
22:09 71.2 °F /  21.8 °C 60.4 °F /  15.8 °C 30in /  1016.8hPa NE 3.1mph /  5km/h 6mph /  9.7km/h 69% 0in /  0.0mm
22:14 71.1 °F /  21.7 °C 60.8 °F /  16 °C 30in /  1016.8hPa NE 3.6mph /  5.8km/h 6mph /  9.7km/h 69.7% 0in /  0.0mm
22:19 71.1 °F /  21.7 °C 60.8 °F /  16 °C 30in /  1016.9hPa NE 3.6mph /  5.8km/h 5.2mph /  8.4km/h 70% 0in /  0.0mm
22:24 70.9 °F /  21.6 °C 60.6 °F /  15.9 °C 30in /  1016.9hPa NE 3.6mph /  5.8km/h 5.2mph /  8.4km/h 70% 0in /  0.0mm
22:29 70.9 °F /  21.6 °C 61 °F /  16.1 °C 30in /  1016.9hPa NE 3.4mph /  5.4km/h 5.2mph /  8.4km/h 71% 0in /  0.0mm
22:34 70.9 °F /  21.6 °C 61 °F /  16.1 °C 30in /  1016.9hPa NE 2.9mph /  4.7km/h 5mph /  8km/h 71% 0in /  0.0mm
22:39 70.7 °F /  21.5 °C 60.8 °F /  16 °C 30in /  1016.9hPa NE 2.9mph /  4.7km/h 5mph /  8km/h 71% 0in /  0.0mm
22:44 70.5 °F /  21.4 °C 61 °F /  16.1 °C 30in /  1016.9hPa NE 3.1mph /  5km/h 5mph /  8km/h 71.8% 0in /  0.0mm
22:49 70.5 °F /  21.4 °C 61.2 °F /  16.2 °C 30in /  1017.0hPa ENE 2.9mph /  4.6km/h 5mph /  8km/h 72% 0in /  0.0mm
22:54 70.5 °F /  21.4 °C 61.2 °F /  16.2 °C 30in /  1017.0hPa ENE 2.4mph /  3.9km/h 5.2mph /  8.4km/h 72% 0in /  0.0mm
22:59 70.3 °F /  21.3 °C 61.2 °F /  16.2 °C 30in /  1017.0hPa NE 2.4mph /  3.9km/h 5mph /  8km/h 72.4% 0in /  0.0mm
23:04 70.3 °F /  21.3 °C 61.3 °F /  16.3 °C 30in /  1017.0hPa ENE 2.4mph /  3.9km/h 5mph /  8km/h 73% 0in /  0.0mm
23:09 70.2 °F /  21.2 °C 61.2 °F /  16.2 °C 30in /  1017.0hPa NE 2.5mph /  4.1km/h 5mph /  8km/h 73% 0in /  0.0mm
23:14 70.2 °F /  21.2 °C 61.2 °F /  16.2 °C 30in /  1017.0hPa ENE 2.9mph /  4.7km/h 5mph /  8km/h 73% 0in /  0.0mm
23:19 70 °F /  21.1 °C 60.8 °F /  16 °C 30in /  1017.0hPa Este 2.7mph /  4.4km/h 5mph /  8km/h 72.7% 0in /  0.0mm
23:24 69.8 °F /  21 °C 60.6 °F /  15.9 °C 30in /  1017.0hPa ESE 2.4mph /  3.9km/h 5mph /  8km/h 72.7% 0in /  0.0mm
23:29 69.6 °F /  20.9 °C 60.3 °F /  15.7 °C 30in /  1017.0hPa ESE 2.1mph /  3.3km/h 5mph /  8km/h 72% 0in /  0.0mm
23:34 69.6 °F /  20.9 °C 60.1 °F /  15.6 °C 30in /  1017.1hPa ESE 1.4mph /  2.2km/h 3.6mph /  5.8km/h 71.7% 0in /  0.0mm
23:39 69.6 °F /  20.9 °C 59.7 °F /  15.4 °C 30in /  1017.1hPa ESE 1.4mph /  2.2km/h 4mph /  6.4km/h 70.9% 0in /  0.0mm
23:44 69.6 °F /  20.9 °C 59.4 °F /  15.2 °C 30in /  1017.1hPa ESE 1.4mph /  2.2km/h 4.6mph /  7.4km/h 70% 0in /  0.0mm
23:49 69.4 °F /  20.8 °C 59.2 °F /  15.1 °C 30in /  1017.1hPa ESE 1.7mph /  2.8km/h 5mph /  8km/h 69.6% 0in /  0.0mm
23:54 69.4 °F /  20.8 °C 59.2 °F /  15.1 °C 30in /  1017.1hPa ESE 2.4mph /  3.9km/h 5mph /  8km/h 70% 0in /  0.0mm
23:59 69.4 °F /  20.8 °C 59.2 °F /  15.1 °C 30in /  1017.1hPa ESE 2.2mph /  3.5km/h 5mph /  8km/h 70% 0in /  0.0mm
Murcia-Puente Tocinos, Espa?a
Compliments of Weather Underground - 3.25 mb

La estación de MeteoMurcia.com, publica sus datos en los siguientes proyectos:

Weather Underground PWS IMURCIAP2 Meteoclimatic www.awekas.at

W3Counter
Web Analytics